createdAt,value
2018-02-06T00:00:40.924Z,14.35
2018-02-06T00:03:09.937Z,16.67
2018-02-06T00:05:38.199Z,15.93
2018-02-06T00:08:06.450Z,16.30
2018-02-06T00:10:35.475Z,17.25
2018-02-06T00:13:03.729Z,16.87
2018-02-06T00:15:32.766Z,16.98
2018-02-06T00:18:01.026Z,18.12
2018-02-06T00:20:29.322Z,16.35
2018-02-06T00:22:57.542Z,16.80
2018-02-06T00:25:26.574Z,17.20
2018-02-06T00:27:54.826Z,17.65
2018-02-06T00:30:23.083Z,19.00
2018-02-06T00:32:52.109Z,20.23
2018-02-06T00:35:20.362Z,18.58
2018-02-06T00:37:48.627Z,19.62
2018-02-06T00:40:17.645Z,18.08
2018-02-06T00:42:45.911Z,20.08
2018-02-06T00:45:14.927Z,19.02
2018-02-06T00:47:43.184Z,17.08
2018-02-06T00:50:11.433Z,18.95
2018-02-06T00:52:40.473Z,16.65
2018-02-06T00:55:08.718Z,17.02
2018-02-06T00:57:37.742Z,16.70
2018-02-06T01:00:05.997Z,15.93
2018-02-06T01:02:34.261Z,16.85
2018-02-06T01:05:03.284Z,15.70
2018-02-06T01:07:31.548Z,15.10
2018-02-06T01:09:59.806Z,15.13
2018-02-06T01:12:28.844Z,14.93
2018-02-06T01:14:57.100Z,15.38
2018-02-06T01:17:25.365Z,15.18
2018-02-06T01:19:53.632Z,15.75
2018-02-06T01:22:22.650Z,17.02
2018-02-06T01:24:50.911Z,15.30
2018-02-06T01:27:19.174Z,16.02
2018-02-06T01:29:48.204Z,15.38
2018-02-06T01:32:16.463Z,14.35
2018-02-06T01:34:44.721Z,15.55
2018-02-06T01:37:12.969Z,16.10
2018-02-06T01:39:42.017Z,14.87
2018-02-06T01:42:10.261Z,15.90
2018-02-06T01:44:39.285Z,15.65
2018-02-06T01:47:07.552Z,15.40
2018-02-06T01:49:35.817Z,14.60
2018-02-06T01:52:04.071Z,15.27
2018-02-06T01:54:33.098Z,16.70
2018-02-06T01:57:01.350Z,16.48
2018-02-06T01:59:30.383Z,17.75
2018-02-06T02:01:58.629Z,16.70
2018-02-06T02:04:26.896Z,16.45
2018-02-06T02:06:55.915Z,17.65
2018-02-06T02:09:24.180Z,17.55
2018-02-06T02:11:52.433Z,17.73
2018-02-06T02:14:21.461Z,17.10
2018-02-06T02:16:49.725Z,19.67
2018-02-06T02:19:17.987Z,18.25
2018-02-06T02:21:46.245Z,18.10
2018-02-06T02:24:15.271Z,17.60
2018-02-06T02:26:43.531Z,16.33
2018-02-06T02:29:11.795Z,15.90
2018-02-06T02:31:40.819Z,17.17
2018-02-06T02:34:09.090Z,16.92
2018-02-06T02:36:37.351Z,17.87
2018-02-06T02:39:06.382Z,13.90
2018-02-06T02:41:34.622Z,15.82
2018-02-06T04:40:24.050Z,17.30
2018-02-06T04:42:52.313Z,17.77
2018-02-06T04:45:21.337Z,17.42
2018-02-06T04:47:49.607Z,15.50
2018-02-06T04:50:17.866Z,15.05
2018-02-06T04:52:46.882Z,15.50
2018-02-06T04:55:15.143Z,15.70
2018-02-06T04:57:43.415Z,16.87
2018-02-06T05:00:11.670Z,15.43
2018-02-06T05:02:40.709Z,16.58
2018-02-06T05:05:08.966Z,16.35
2018-02-06T05:07:37.320Z,15.93
2018-02-06T05:10:06.348Z,16.27
2018-02-06T05:12:34.603Z,17.90
2018-02-06T05:15:03.622Z,15.25
2018-02-06T05:17:31.874Z,14.98
2018-02-06T05:20:00.129Z,17.85
2018-02-06T05:22:28.387Z,17.92
2018-02-06T05:24:56.633Z,17.98
2018-02-06T05:27:24.902Z,17.20
2018-02-06T05:29:53.155Z,20.70
2018-02-06T05:32:21.423Z,18.05
2018-02-06T05:34:50.439Z,16.60
2018-02-06T05:37:18.685Z,18.30
2018-02-06T05:39:47.716Z,15.07
2018-02-06T05:42:15.962Z,16.20
2018-02-06T05:44:44.990Z,17.37
2018-02-06T05:47:13.242Z,15.88
2018-02-06T05:49:41.505Z,16.45
2018-02-06T05:52:10.521Z,15.02
2018-02-06T05:54:38.787Z,17.42
2018-02-06T05:57:07.030Z,16.42
2018-02-06T05:59:36.059Z,15.68
2018-02-06T06:02:04.306Z,15.63
2018-02-06T06:04:33.326Z,15.63
2018-02-06T06:07:01.581Z,15.07
2018-02-06T06:09:30.610Z,14.93
2018-02-06T06:11:58.870Z,14.80
2018-02-06T06:14:27.140Z,15.00
2018-02-06T06:16:55.392Z,16.92
2018-02-06T06:19:24.425Z,16.12
2018-02-06T06:21:52.694Z,14.52
2018-02-06T06:24:20.954Z,17.05
2018-02-06T06:26:49.979Z,15.25
2018-02-06T06:29:18.240Z,17.42
2018-02-06T06:31:46.495Z,15.70
2018-02-06T06:34:15.526Z,15.52
2018-02-06T06:36:43.781Z,16.20
2018-02-06T06:39:12.034Z,17.12
2018-02-06T06:41:41.061Z,15.82
2018-02-06T06:44:09.313Z,16.45
2018-02-06T06:46:37.585Z,16.10
2018-02-06T06:49:06.611Z,17.87
2018-02-06T06:51:34.874Z,18.12
2018-02-06T06:54:03.124Z,14.77
2018-02-06T06:56:32.147Z,17.08
2018-02-06T06:59:00.390Z,15.27
2018-02-06T07:01:29.421Z,14.95
2018-02-06T07:03:57.682Z,14.05
2018-02-06T07:06:25.947Z,13.98
2018-02-06T07:08:54.953Z,14.70
2018-02-06T07:11:23.213Z,13.32
2018-02-06T07:13:51.471Z,14.60
2018-02-06T07:16:20.504Z,14.27
2018-02-06T07:18:48.745Z,14.30
2018-02-06T07:21:17.770Z,13.52
2018-02-06T07:23:46.031Z,15.15
2018-02-06T07:26:14.297Z,14.77
2018-02-06T07:28:42.562Z,13.93
2018-02-06T07:31:11.598Z,14.00
2018-02-06T07:33:39.855Z,13.85
2018-02-06T07:36:08.107Z,13.00
2018-02-06T07:38:37.135Z,14.48
2018-02-06T07:41:05.397Z,14.55
2018-02-06T07:43:33.671Z,13.57
2018-02-06T07:46:01.926Z,14.73
2018-02-06T07:48:30.955Z,14.15
2018-02-06T07:50:59.248Z,14.02
2018-02-06T07:53:27.474Z,14.00
2018-02-06T07:55:56.501Z,14.13
2018-02-06T07:58:24.763Z,12.20
2018-02-06T08:00:53.026Z,14.20
2018-02-06T08:03:22.057Z,14.63
2018-02-06T08:05:50.310Z,14.77
2018-02-06T08:08:18.588Z,15.90
2018-02-06T08:10:46.855Z,12.00
2018-02-06T08:13:15.126Z,13.73
2018-02-06T08:15:44.151Z,13.07
2018-02-06T08:18:12.417Z,15.10
2018-02-06T08:20:40.674Z,13.93
2018-02-06T08:23:08.952Z,13.70
2018-02-06T08:25:37.211Z,15.35
2018-02-06T08:28:06.243Z,14.20
2018-02-06T08:30:34.511Z,13.02
2018-02-06T08:33:02.767Z,13.55
2018-02-06T08:35:31.037Z,14.55
2018-02-06T08:38:00.065Z,14.52
2018-02-06T08:40:28.334Z,13.30
2018-02-06T08:42:56.598Z,14.48
2018-02-06T08:45:24.865Z,15.13
2018-02-06T08:47:53.125Z,15.50
2018-02-06T08:50:22.168Z,16.00
2018-02-06T08:52:50.433Z,14.40
2018-02-06T08:55:18.697Z,15.18
2018-02-06T08:57:46.962Z,14.65
2018-02-06T09:00:15.242Z,13.98
2018-02-06T09:02:43.496Z,14.60
2018-02-06T09:05:12.533Z,16.02
2018-02-06T09:07:40.804Z,14.65
2018-02-06T09:10:09.110Z,15.00
2018-02-06T09:12:38.125Z,12.77
2018-02-06T09:15:07.157Z,14.00
2018-02-06T09:17:35.439Z,13.90
2018-02-06T09:20:03.704Z,15.13
2018-02-06T09:22:31.970Z,15.52
2018-02-06T09:25:00.237Z,15.53
2018-02-06T09:27:28.513Z,14.18
2018-02-06T09:29:57.533Z,15.80
2018-02-06T09:32:25.801Z,14.13
2018-02-06T09:34:54.069Z,14.25
2018-02-06T09:37:22.341Z,16.50
2018-02-06T09:39:50.616Z,16.27
2018-02-06T09:42:18.887Z,16.80
2018-02-06T09:44:47.909Z,14.80
2018-02-06T09:47:16.171Z,15.10
2018-02-06T09:49:44.424Z,15.00
2018-02-06T09:52:13.449Z,16.13
2018-02-06T09:54:41.701Z,14.83
2018-02-06T09:57:10.733Z,16.33
2018-02-06T09:59:38.992Z,15.77
2018-02-06T10:02:07.245Z,16.70
2018-02-06T10:04:36.269Z,16.73
2018-02-06T10:07:04.527Z,16.63
2018-02-06T10:09:32.801Z,15.93
2018-02-06T10:12:01.063Z,16.00
2018-02-06T10:14:30.095Z,16.50
2018-02-06T10:16:58.345Z,15.90
2018-02-06T10:19:26.613Z,17.80
2018-02-06T10:21:55.639Z,15.30
2018-02-06T10:24:23.899Z,16.80
2018-02-06T10:26:52.152Z,16.90
2018-02-06T10:29:21.182Z,17.47
2018-02-06T10:31:49.437Z,17.40
2018-02-06T10:34:17.703Z,17.60
2018-02-06T10:36:45.963Z,16.77
2018-02-06T10:39:14.986Z,17.90
2018-02-06T10:41:43.239Z,16.27
2018-02-06T10:44:15.357Z,16.10
2018-02-06T10:46:43.623Z,15.53
2018-02-06T10:49:11.865Z,17.80
2018-02-06T10:51:40.885Z,16.40
2018-02-06T10:54:09.141Z,14.82
2018-02-06T10:56:37.398Z,14.93
2018-02-06T10:59:06.414Z,17.13
2018-02-06T11:01:34.671Z,16.80
2018-02-06T11:04:03.684Z,16.30
2018-02-06T11:06:31.944Z,17.20
2018-02-06T11:09:00.958Z,17.53
2018-02-06T11:11:29.212Z,16.30
2018-02-06T11:13:58.227Z,16.27
2018-02-06T11:16:26.478Z,16.80
2018-02-06T11:18:55.499Z,18.10
2018-02-06T11:21:23.750Z,20.30
2018-02-06T11:23:52.761Z,19.23
2018-02-06T11:26:21.016Z,18.57
2018-02-06T11:28:50.705Z,19.17
2018-02-06T11:31:18.958Z,20.83
2018-02-06T11:33:47.213Z,17.80
2018-02-06T11:36:15.469Z,22.00
2018-02-06T11:38:43.712Z,19.40
2018-02-06T11:41:12.729Z,21.40
2018-02-06T11:43:40.981Z,20.77
2018-02-06T11:46:09.229Z,20.13
2018-02-06T11:48:37.486Z,20.00
2018-02-06T11:51:05.737Z,18.10
2018-02-06T11:53:33.989Z,18.90
2018-02-06T11:56:03.002Z,19.00
2018-02-06T11:58:31.261Z,20.50
2018-02-06T12:01:00.279Z,21.10
2018-02-06T12:03:28.543Z,18.53
2018-02-06T12:05:56.786Z,19.80
2018-02-06T12:08:25.041Z,18.27
2018-02-06T12:10:54.053Z,19.13
2018-02-06T12:13:22.312Z,19.93
2018-02-06T12:15:50.560Z,18.07
2018-02-06T12:18:18.821Z,21.33
2018-02-06T12:20:47.074Z,20.60
2018-02-06T12:23:16.098Z,19.67
2018-02-06T12:25:44.338Z,18.80
2018-02-06T12:28:13.366Z,18.27
2018-02-06T12:30:41.614Z,17.00
2018-02-06T12:33:10.626Z,20.80
2018-02-06T12:35:38.878Z,19.50
2018-02-06T12:38:07.886Z,18.90
2018-02-06T12:40:36.139Z,17.40
2018-02-06T12:43:05.151Z,18.27
2018-02-06T12:45:34.171Z,19.40
2018-02-06T12:48:02.415Z,20.10
2018-02-06T12:50:31.446Z,19.70
2018-02-06T12:52:59.695Z,17.67
2018-02-06T12:55:27.949Z,21.33
2018-02-06T12:57:56.960Z,20.20
2018-02-06T13:00:25.222Z,19.80
2018-02-06T13:02:54.224Z,18.40
2018-02-06T13:05:22.478Z,18.90
2018-02-06T13:07:50.722Z,17.30
2018-02-06T13:10:18.976Z,17.73
2018-02-06T13:12:47.221Z,20.43
2018-02-06T13:15:16.246Z,19.63
2018-02-06T13:17:44.506Z,19.70
2018-02-06T13:20:12.746Z,19.47
2018-02-06T13:22:41.001Z,20.00
2018-02-06T13:25:09.249Z,20.13
2018-02-06T13:27:37.499Z,19.17
2018-02-06T13:30:06.506Z,20.50
2018-02-06T13:32:34.757Z,20.90
2018-02-06T13:35:03.779Z,19.03
2018-02-06T13:37:32.026Z,18.80
2018-02-06T13:40:01.036Z,17.53
2018-02-06T13:42:29.293Z,27.27
2018-02-06T13:44:58.305Z,19.57
2018-02-06T13:47:26.580Z,20.47
2018-02-06T13:49:54.825Z,20.07
2018-02-06T13:52:23.845Z,20.37
2018-02-06T13:54:52.090Z,18.20
2018-02-06T13:57:20.391Z,18.73
2018-02-06T13:59:49.402Z,19.50
2018-02-06T14:02:17.649Z,17.57
2018-02-06T14:04:46.673Z,20.77
2018-02-06T14:07:14.920Z,19.97
2018-02-06T14:09:43.946Z,19.30
2018-02-06T14:12:12.190Z,20.77
2018-02-06T14:14:41.210Z,21.23
2018-02-06T14:17:09.450Z,19.70
2018-02-06T14:19:38.470Z,17.27
2018-02-06T14:22:06.724Z,19.80
2018-02-06T14:24:35.750Z,17.53
2018-02-06T14:27:03.995Z,19.73
2018-02-06T14:29:33.023Z,22.60
2018-02-06T14:32:01.266Z,22.70
2018-02-06T14:34:30.298Z,18.50
2018-02-06T14:36:58.541Z,18.97
2018-02-06T14:39:26.800Z,18.63
2018-02-06T14:41:55.813Z,21.03
2018-02-06T14:44:24.070Z,20.60
2018-02-06T14:46:53.085Z,17.53
2018-02-06T14:49:21.345Z,19.50
2018-02-06T14:51:50.361Z,18.27
2018-02-06T14:54:18.617Z,20.43
2018-02-06T14:56:47.625Z,21.33
2018-02-06T14:59:15.884Z,19.20
2018-02-06T15:01:44.146Z,18.70
2018-02-06T15:04:13.166Z,20.17
2018-02-06T15:06:41.421Z,18.90
2018-02-06T15:09:10.441Z,17.53
2018-02-06T15:11:38.707Z,19.20
2018-02-06T15:14:07.717Z,21.13
2018-02-06T15:16:35.979Z,17.97
2018-02-06T15:19:04.254Z,20.37
2018-02-06T15:21:32.511Z,20.20
2018-02-06T15:24:01.522Z,20.33
2018-02-06T15:26:29.777Z,19.97
2018-02-06T15:28:58.799Z,20.83
2018-02-06T15:31:27.063Z,43.50
2018-02-06T15:33:55.310Z,23.60
2018-02-06T15:36:23.571Z,20.97
2018-02-06T15:38:51.818Z,24.60
2018-02-06T15:41:20.082Z,19.60
2018-02-06T15:43:48.330Z,20.20
2018-02-06T15:46:16.590Z,20.40
2018-02-06T15:48:45.606Z,21.80
2018-02-06T15:51:13.858Z,21.10
2018-02-06T15:53:42.873Z,20.87
2018-02-06T15:56:11.137Z,23.73
2018-02-06T15:58:40.162Z,20.42
2018-02-06T16:01:10.692Z,43.05
2018-02-06T16:03:38.940Z,23.50
2018-02-06T16:06:07.243Z,30.05
2018-02-06T16:08:35.506Z,31.20
2018-02-06T16:11:03.750Z,23.90
2018-02-06T16:13:31.999Z,23.90
2018-02-06T16:16:00.249Z,20.60
2018-02-06T16:18:28.511Z,21.42
2018-02-06T16:20:56.761Z,18.10
2018-02-06T16:23:25.791Z,20.30
2018-02-06T16:25:54.049Z,19.87
2018-02-06T16:28:22.313Z,19.55
2018-02-06T16:30:51.330Z,19.30
2018-02-06T16:33:19.595Z,21.77
2018-02-06T16:35:47.846Z,19.67
2018-02-06T16:38:16.881Z,19.12
2018-02-06T16:40:45.130Z,18.47
2018-02-06T16:43:13.394Z,19.90
2018-02-06T16:45:42.417Z,19.75
2018-02-06T16:48:10.682Z,18.48
2018-02-06T16:50:38.932Z,18.35
2018-02-06T16:53:07.971Z,18.50
2018-02-06T16:55:36.230Z,18.17
2018-02-06T16:58:04.502Z,19.45
2018-02-06T17:00:32.759Z,21.62
2018-02-06T17:03:01.781Z,19.08
2018-02-06T17:05:30.049Z,18.87
2018-02-06T17:07:58.310Z,21.02
2018-02-06T17:10:27.347Z,20.40
2018-02-06T17:12:55.619Z,19.10
2018-02-06T17:15:23.886Z,18.60
2018-02-06T17:17:52.149Z,18.55
2018-02-06T17:20:20.417Z,19.08
2018-02-06T17:22:48.673Z,20.40
2018-02-06T17:25:17.717Z,19.30
2018-02-06T17:27:46.751Z,20.00
2018-02-06T17:30:15.030Z,19.73
2018-02-06T17:32:43.282Z,18.60
2018-02-06T17:35:11.559Z,18.87
2018-02-06T17:37:39.814Z,19.95
2018-02-06T17:40:08.088Z,19.35
2018-02-06T17:42:36.349Z,21.08
2018-02-06T17:45:04.622Z,18.70
2018-02-06T17:47:32.885Z,20.60
2018-02-06T17:50:01.152Z,22.67
2018-02-06T17:52:29.417Z,22.50
2018-02-06T17:54:58.445Z,22.05
2018-02-06T17:57:26.710Z,20.05
2018-02-06T17:59:54.980Z,20.70
2018-02-06T18:02:23.237Z,19.45
2018-02-06T18:04:52.271Z,21.30
2018-02-06T18:07:20.525Z,20.15
2018-02-06T18:09:48.791Z,20.85
2018-02-06T18:12:17.057Z,19.45
2018-02-06T18:14:46.087Z,22.52
2018-02-06T18:17:14.358Z,20.50
2018-02-06T18:19:42.622Z,20.88
2018-02-06T18:22:10.901Z,22.67
2018-02-06T18:24:39.158Z,21.37
2018-02-06T18:27:08.195Z,20.55
2018-02-06T18:29:36.441Z,20.65
2018-02-06T18:32:04.713Z,19.40
2018-02-06T18:34:32.970Z,19.85
2018-02-06T18:37:01.999Z,22.33
2018-02-06T18:39:30.259Z,19.70
2018-02-06T18:41:58.520Z,20.12
2018-02-06T18:44:27.542Z,20.30
2018-02-06T18:46:55.863Z,21.20
2018-02-06T18:49:24.126Z,21.80
2018-02-06T18:51:52.391Z,20.20
2018-02-06T18:54:20.653Z,21.23
2018-02-06T18:56:48.964Z,22.73
2018-02-06T18:59:17.221Z,21.23
2018-02-06T19:01:45.477Z,20.12
2018-02-06T19:04:13.745Z,20.85
2018-02-06T19:06:42.003Z,19.73
2018-02-06T19:09:11.035Z,19.52
2018-02-06T19:11:39.309Z,21.10
2018-02-06T19:14:07.557Z,20.85
2018-02-06T19:16:35.817Z,19.65
2018-02-06T19:19:04.853Z,22.05
2018-02-06T19:21:33.156Z,21.45
2018-02-06T19:24:01.470Z,20.67
2018-02-06T19:26:30.481Z,21.52
2018-02-06T19:28:58.804Z,20.45
2018-02-06T19:31:27.059Z,22.05
2018-02-06T19:33:56.149Z,20.58
2018-02-06T19:36:24.402Z,20.20
2018-02-06T19:38:52.747Z,21.50
2018-02-06T19:41:20.990Z,21.52
2018-02-06T19:43:49.257Z,20.40
2018-02-06T19:46:18.338Z,21.12
2018-02-06T19:48:46.598Z,20.67
2018-02-06T19:51:14.909Z,21.00
2018-02-06T19:53:43.892Z,20.40
2018-02-06T19:56:12.149Z,23.15
2018-02-06T19:58:40.419Z,21.08
2018-02-06T20:01:08.678Z,19.83
2018-02-06T20:03:37.707Z,20.20
2018-02-06T20:06:06.027Z,20.58
2018-02-06T20:08:34.326Z,23.45
2018-02-06T20:11:03.411Z,18.98
2018-02-06T20:13:31.665Z,22.80
2018-02-06T20:15:59.984Z,20.85
2018-02-06T20:18:29.016Z,20.60
2018-02-06T20:20:57.345Z,20.88
2018-02-06T20:23:26.413Z,19.60
2018-02-06T20:25:54.674Z,20.40
2018-02-06T20:28:23.693Z,21.25
2018-02-06T20:30:52.739Z,21.00
2018-02-06T20:33:21.042Z,22.45
2018-02-06T20:35:49.297Z,21.92
2018-02-06T20:38:17.559Z,20.88
2018-02-06T20:40:45.823Z,20.15
2018-02-06T20:43:14.089Z,22.77
2018-02-06T20:45:42.393Z,21.77
2018-02-06T20:48:10.700Z,21.23
2018-02-06T20:50:39.007Z,21.90
2018-02-06T20:53:08.037Z,21.77
2018-02-06T20:55:36.293Z,22.37
2018-02-06T20:58:04.562Z,20.65
2018-02-06T21:00:32.822Z,21.67
2018-02-06T21:03:01.850Z,21.50
2018-02-06T21:05:30.113Z,22.30
2018-02-06T21:07:59.133Z,22.77
2018-02-06T21:10:27.396Z,23.05
2018-02-06T21:12:55.676Z,19.77
2018-02-06T21:15:23.926Z,21.95
2018-02-06T21:17:52.204Z,22.17
2018-02-06T21:20:20.464Z,22.35
2018-02-06T21:22:49.500Z,22.73
2018-02-06T21:25:17.807Z,21.87
2018-02-06T21:27:46.882Z,21.58
2018-02-06T21:30:15.142Z,21.45
2018-02-06T21:32:43.419Z,20.30
2018-02-06T21:35:11.720Z,20.83
2018-02-06T21:37:39.985Z,21.12
2018-02-06T21:40:08.293Z,21.50
2018-02-06T21:42:36.592Z,21.40
2018-02-06T21:45:05.614Z,21.52
2018-02-06T21:47:33.873Z,19.90
2018-02-06T21:50:02.140Z,21.60
2018-02-06T21:52:31.167Z,21.33
2018-02-06T21:54:59.427Z,21.00
2018-02-06T21:57:27.683Z,20.40
2018-02-06T21:59:56.724Z,23.33
2018-02-06T22:02:25.017Z,22.58
2018-02-06T22:04:53.279Z,22.52
2018-02-06T22:07:21.550Z,21.30
2018-02-06T22:09:49.810Z,23.00
2018-02-06T22:12:18.120Z,22.20
2018-02-06T22:14:47.151Z,23.87
2018-02-06T22:17:16.184Z,21.77
2018-02-06T22:19:44.481Z,21.40
2018-02-06T22:22:12.702Z,22.37
2018-02-06T22:24:40.970Z,22.48
2018-02-06T22:27:10.036Z,23.87
2018-02-06T22:29:38.470Z,21.33
2018-02-06T22:32:06.732Z,21.37
2018-02-06T22:34:35.014Z,22.77
2018-02-06T22:37:03.275Z,20.25
2018-02-06T22:39:32.295Z,19.73
2018-02-06T22:42:00.559Z,20.55
2018-02-06T22:44:28.814Z,21.05
2018-02-06T22:46:57.854Z,20.20
2018-02-06T22:49:26.118Z,21.77
2018-02-06T22:51:54.374Z,22.30
2018-02-06T22:54:22.629Z,20.40
2018-02-06T22:56:51.672Z,20.77
2018-02-06T22:59:19.934Z,20.12
2018-02-06T23:01:48.202Z,20.85
2018-02-06T23:04:16.592Z,22.42
2018-02-06T23:06:45.012Z,20.52
2018-02-06T23:09:13.334Z,20.17
2018-02-06T23:11:42.445Z,21.33
2018-02-06T23:14:11.230Z,21.30
2018-02-06T23:16:39.938Z,23.92
2018-02-06T23:19:08.310Z,22.98
2018-02-06T23:21:36.746Z,21.95
2018-02-06T23:24:06.073Z,20.15
2018-02-06T23:26:34.485Z,20.52
2018-02-06T23:29:02.756Z,22.02
2018-02-06T23:31:31.062Z,20.37
2018-02-06T23:34:00.092Z,21.90
2018-02-06T23:36:28.342Z,19.60
2018-02-06T23:38:57.397Z,20.42
2018-02-06T23:41:25.649Z,20.05
2018-02-06T23:43:53.944Z,21.27
2018-02-06T23:46:22.190Z,22.05
2018-02-06T23:48:51.137Z,20.80
2018-02-06T23:51:19.390Z,21.20
2018-02-06T23:53:47.652Z,21.23
2018-02-06T23:56:15.906Z,20.08
2018-02-06T23:58:44.167Z,22.15
